createdAt,value
2023-08-14T00:00:32.890Z,17.08
2023-08-14T00:01:32.872Z,17.10
2023-08-14T00:02:32.857Z,17.11
2023-08-14T00:03:32.870Z,17.11
2023-08-14T00:04:32.817Z,17.08
2023-08-14T00:05:32.842Z,17.11
2023-08-14T00:06:32.856Z,17.11
2023-08-14T00:07:32.838Z,17.10
2023-08-14T00:08:32.831Z,17.15
2023-08-14T00:09:33.556Z,17.15
2023-08-14T00:10:32.845Z,17.13
2023-08-14T00:11:32.898Z,17.14
2023-08-14T00:12:32.773Z,17.14
2023-08-14T00:13:32.759Z,17.15
2023-08-14T00:14:32.726Z,17.22
2023-08-14T00:15:32.896Z,17.26
2023-08-14T00:16:32.840Z,17.29
2023-08-14T00:17:32.981Z,17.33
2023-08-14T00:18:32.971Z,17.32
2023-08-14T00:19:32.696Z,17.32
2023-08-14T00:20:32.738Z,17.33
2023-08-14T00:21:32.691Z,17.35
2023-08-14T00:22:32.689Z,17.36
2023-08-14T00:23:32.637Z,17.35
2023-08-14T00:24:32.595Z,17.33
2023-08-14T00:25:32.680Z,17.30
2023-08-14T00:26:32.662Z,17.25
2023-08-14T00:27:32.662Z,17.23
2023-08-14T00:28:32.587Z,17.23
2023-08-14T00:29:32.927Z,17.23
2023-08-14T00:30:32.568Z,17.23
2023-08-14T00:31:32.676Z,17.28
2023-08-14T00:32:32.833Z,17.30
2023-08-14T00:33:32.518Z,17.30
2023-08-14T00:34:32.498Z,17.33
2023-08-14T00:35:32.514Z,17.36
2023-08-14T00:36:32.459Z,17.38
2023-08-14T00:37:32.464Z,17.43
2023-08-14T00:38:32.494Z,17.44
2023-08-14T00:39:32.465Z,17.48
2023-08-14T00:40:32.436Z,17.51
2023-08-14T00:41:32.400Z,17.54
2023-08-14T00:42:32.388Z,17.55
2023-08-14T00:43:32.445Z,17.57
2023-08-14T00:44:32.366Z,17.57
2023-08-14T00:45:45.256Z,17.62
2023-08-14T00:46:32.426Z,17.66
2023-08-14T00:47:32.347Z,17.69
2023-08-14T00:48:32.393Z,17.70
2023-08-14T00:49:32.313Z,17.71
2023-08-14T00:50:32.294Z,17.69
2023-08-14T00:51:32.285Z,17.69
2023-08-14T00:52:32.292Z,17.70
2023-08-14T00:53:32.263Z,17.73
2023-08-14T00:54:32.247Z,17.66
2023-08-14T00:55:32.257Z,17.67
2023-08-14T00:56:32.228Z,17.64
2023-08-14T00:57:32.220Z,17.67
2023-08-14T00:58:32.223Z,17.66
2023-08-14T00:59:32.212Z,17.63
2023-08-14T01:00:32.198Z,17.63
2023-08-14T01:01:32.169Z,17.63
2023-08-14T01:02:32.234Z,17.62
2023-08-14T01:03:32.170Z,17.59
2023-08-14T01:04:32.162Z,17.55
2023-08-14T01:05:32.157Z,17.54
2023-08-14T01:06:32.116Z,17.51
2023-08-14T01:07:32.109Z,17.48
2023-08-14T01:08:32.110Z,17.43
2023-08-14T01:09:32.122Z,17.40
2023-08-14T01:10:32.127Z,17.38
2023-08-14T01:11:32.071Z,17.36
2023-08-14T01:12:32.057Z,17.35
2023-08-14T01:13:32.046Z,17.33
2023-08-14T01:14:32.027Z,17.32
2023-08-14T01:15:32.018Z,17.29
2023-08-14T01:16:32.066Z,17.28
2023-08-14T01:17:32.944Z,17.26
2023-08-14T01:18:31.979Z,17.26
2023-08-14T01:19:31.975Z,17.23
2023-08-14T01:20:31.957Z,17.26
2023-08-14T01:21:31.948Z,17.20
2023-08-14T01:22:31.980Z,17.14
2023-08-14T01:23:31.940Z,17.10
2023-08-14T01:24:31.909Z,17.07
2023-08-14T01:25:31.910Z,17.03
2023-08-14T01:26:31.917Z,17.06
2023-08-14T01:27:31.885Z,17.06
2023-08-14T01:28:31.872Z,17.06
2023-08-14T01:29:31.864Z,17.07
2023-08-14T01:30:31.886Z,17.11
2023-08-14T01:31:31.847Z,17.13
2023-08-14T01:32:31.920Z,17.17
2023-08-14T01:33:31.818Z,17.22
2023-08-14T01:34:31.801Z,17.28
2023-08-14T01:35:31.814Z,17.29
2023-08-14T01:36:31.780Z,17.30
2023-08-14T01:37:31.784Z,17.29
2023-08-14T01:38:31.784Z,17.29
2023-08-14T01:39:31.768Z,17.29
2023-08-14T01:40:31.781Z,17.29
2023-08-14T01:41:31.730Z,17.28
2023-08-14T01:42:31.711Z,17.28
2023-08-14T01:43:31.713Z,17.26
2023-08-14T01:44:31.687Z,17.22
2023-08-14T01:45:31.700Z,17.20
2023-08-14T01:46:31.708Z,17.17
2023-08-14T01:47:31.667Z,17.17
2023-08-14T01:48:31.650Z,17.11
2023-08-14T01:49:31.641Z,17.03
2023-08-14T01:50:31.648Z,16.95
2023-08-14T01:51:31.617Z,16.89
2023-08-14T01:52:31.602Z,16.80
2023-08-14T01:53:31.588Z,16.78
2023-08-14T01:54:31.582Z,16.78
2023-08-14T01:55:31.576Z,16.78
2023-08-14T01:56:31.676Z,16.73
2023-08-14T01:57:31.554Z,16.70
2023-08-14T01:58:31.548Z,16.67
2023-08-14T01:59:31.551Z,16.68
2023-08-14T02:00:31.512Z,16.67
2023-08-14T02:01:31.531Z,16.68
2023-08-14T02:02:31.597Z,16.63
2023-08-14T02:03:31.643Z,16.62
2023-08-14T02:04:31.474Z,16.62
2023-08-14T02:05:31.455Z,16.63
2023-08-14T02:06:31.474Z,16.63
2023-08-14T02:07:31.438Z,16.65
2023-08-14T02:08:31.434Z,16.62
2023-08-14T02:09:31.412Z,16.60
2023-08-14T02:10:31.398Z,16.59
2023-08-14T02:11:31.427Z,16.59
2023-08-14T02:12:31.401Z,16.56
2023-08-14T02:13:31.370Z,16.56
2023-08-14T02:14:31.383Z,16.56
2023-08-14T02:15:31.354Z,16.53
2023-08-14T02:16:31.340Z,16.52
2023-08-14T02:17:31.367Z,16.50
2023-08-14T02:18:31.316Z,16.49
2023-08-14T02:19:31.335Z,16.50
2023-08-14T02:20:31.297Z,16.48
2023-08-14T02:21:31.289Z,16.49
2023-08-14T02:22:31.271Z,16.48
2023-08-14T02:23:31.282Z,16.45
2023-08-14T02:24:31.274Z,16.42
2023-08-14T02:25:31.243Z,16.40
2023-08-14T02:26:31.243Z,16.40
2023-08-14T02:27:31.218Z,16.37
2023-08-14T02:28:31.208Z,16.38
2023-08-14T02:29:31.216Z,16.37
2023-08-14T02:30:31.187Z,16.34
2023-08-14T02:31:31.250Z,16.37
2023-08-14T02:32:31.168Z,16.37
2023-08-14T02:33:31.151Z,16.37
2023-08-14T02:34:31.149Z,16.37
2023-08-14T02:35:31.142Z,16.35
2023-08-14T02:36:31.131Z,16.35
2023-08-14T02:37:31.148Z,16.38
2023-08-14T02:38:31.094Z,16.38
2023-08-14T02:39:31.101Z,16.37
2023-08-14T02:40:31.070Z,16.35
2023-08-14T02:41:31.065Z,16.35
2023-08-14T02:42:31.076Z,16.37
2023-08-14T02:43:31.060Z,16.34
2023-08-14T02:44:31.035Z,16.27
2023-08-14T02:45:31.043Z,16.26
2023-08-14T02:46:31.008Z,16.30
2023-08-14T02:47:31.001Z,16.30
2023-08-14T02:48:30.980Z,16.27
2023-08-14T02:49:31.008Z,16.27
2023-08-14T02:50:30.961Z,16.26
2023-08-14T02:51:30.942Z,16.23
2023-08-14T02:52:30.937Z,16.20
2023-08-14T02:53:30.922Z,16.15
2023-08-14T02:54:30.944Z,16.14
2023-08-14T02:55:30.919Z,16.09
2023-08-14T02:56:30.886Z,16.06
2023-08-14T02:57:30.895Z,16.06
2023-08-14T02:58:30.861Z,16.01
2023-08-14T02:59:30.858Z,16.01
2023-08-14T03:00:30.883Z,16.01
2023-08-14T03:01:30.867Z,15.99
2023-08-14T03:02:30.938Z,16.00
2023-08-14T03:03:30.844Z,15.99
2023-08-14T03:04:30.798Z,16.01
2023-08-14T03:05:30.788Z,16.03
2023-08-14T03:06:30.829Z,16.09
2023-08-14T03:07:30.766Z,16.09
2023-08-14T03:08:30.762Z,16.11
2023-08-14T03:09:30.752Z,16.12
2023-08-14T03:10:30.739Z,16.06
2023-08-14T03:11:30.738Z,16.03
2023-08-14T03:12:30.733Z,16.01
2023-08-14T03:13:30.701Z,15.97
2023-08-14T03:14:30.684Z,15.93
2023-08-14T03:15:30.674Z,15.92
2023-08-14T03:16:30.662Z,15.88
2023-08-14T03:17:30.726Z,15.85
2023-08-14T03:18:30.682Z,15.81
2023-08-14T03:19:30.654Z,15.78
2023-08-14T03:20:30.643Z,15.76
2023-08-14T03:21:30.602Z,15.74
2023-08-14T03:22:30.595Z,15.74
2023-08-14T03:23:30.618Z,15.70
2023-08-14T03:24:30.584Z,15.70
2023-08-14T03:25:30.570Z,15.74
2023-08-14T03:26:30.562Z,15.74
2023-08-14T03:27:30.561Z,15.75
2023-08-14T03:28:30.572Z,15.75
2023-08-14T03:29:30.556Z,15.74
2023-08-14T03:30:30.519Z,15.70
2023-08-14T03:31:30.492Z,15.70
2023-08-14T03:32:30.500Z,15.74
2023-08-14T03:33:30.492Z,15.68
2023-08-14T03:34:30.504Z,15.67
2023-08-14T03:35:30.455Z,15.70
2023-08-14T03:36:30.443Z,15.68
2023-08-14T03:37:30.436Z,15.67
2023-08-14T03:38:30.431Z,15.67
2023-08-14T03:39:30.416Z,15.68
2023-08-14T03:40:30.442Z,15.64
2023-08-14T03:41:30.403Z,15.63
2023-08-14T03:42:30.386Z,15.60
2023-08-14T03:43:30.365Z,15.57
2023-08-14T03:44:30.372Z,15.49
2023-08-14T03:45:45.116Z,15.42
2023-08-14T03:46:30.493Z,15.31
2023-08-14T03:47:30.355Z,15.30
2023-08-14T03:48:30.313Z,15.36
2023-08-14T03:49:30.314Z,15.41
2023-08-14T03:50:30.306Z,15.45
2023-08-14T03:51:30.305Z,15.43
2023-08-14T03:52:30.290Z,15.39
2023-08-14T03:53:30.286Z,15.36
2023-08-14T03:54:30.241Z,15.36
2023-08-14T03:55:30.250Z,15.38
2023-08-14T03:56:30.241Z,15.42
2023-08-14T03:57:30.214Z,15.42
2023-08-14T03:58:30.204Z,15.43
2023-08-14T03:59:30.196Z,15.39
2023-08-14T04:00:30.200Z,15.33
2023-08-14T04:01:30.192Z,15.31
2023-08-14T04:02:30.189Z,15.33
2023-08-14T04:03:30.268Z,15.39
2023-08-14T04:04:30.134Z,15.41
2023-08-14T04:05:30.172Z,15.38
2023-08-14T04:06:30.210Z,15.38
2023-08-14T04:07:30.105Z,15.39
2023-08-14T04:08:30.091Z,15.39
2023-08-14T04:09:30.078Z,15.38
2023-08-14T04:10:30.104Z,15.39
2023-08-14T04:11:30.060Z,15.35
2023-08-14T04:12:30.060Z,15.33
2023-08-14T04:13:30.042Z,15.35
2023-08-14T04:14:30.021Z,15.41
2023-08-14T04:15:30.023Z,15.41
2023-08-14T04:16:30.054Z,15.41
2023-08-14T04:17:29.993Z,15.39
2023-08-14T04:18:29.983Z,15.38
2023-08-14T04:19:29.968Z,15.38
2023-08-14T04:20:29.955Z,15.38
2023-08-14T04:21:29.945Z,15.35
2023-08-14T04:22:29.968Z,15.33
2023-08-14T04:23:29.942Z,15.33
2023-08-14T04:24:29.919Z,15.33
2023-08-14T04:25:29.912Z,15.36
2023-08-14T04:26:29.886Z,15.36
2023-08-14T04:27:29.877Z,15.36
2023-08-14T04:28:29.888Z,15.38
2023-08-14T04:29:29.870Z,15.39
2023-08-14T04:30:29.857Z,15.39
2023-08-14T04:31:29.873Z,15.36
2023-08-14T04:32:29.854Z,15.38
2023-08-14T04:33:29.848Z,15.39
2023-08-14T04:34:29.794Z,15.39
2023-08-14T04:35:29.791Z,15.41
2023-08-14T04:36:29.780Z,15.41
2023-08-14T04:37:29.772Z,15.42
2023-08-14T04:38:29.760Z,15.39
2023-08-14T04:39:29.769Z,15.36
2023-08-14T04:40:29.736Z,15.39
2023-08-14T04:41:29.744Z,15.45
2023-08-14T04:42:29.714Z,15.45
2023-08-14T04:43:29.700Z,15.42
2023-08-14T04:44:29.695Z,15.46
2023-08-14T04:45:29.677Z,15.48
2023-08-14T04:46:30.847Z,15.49
2023-08-14T04:47:29.685Z,15.52
2023-08-14T04:48:29.642Z,15.54
2023-08-14T04:49:29.650Z,15.51
2023-08-14T04:50:29.630Z,15.51
2023-08-14T04:51:29.613Z,15.56
2023-08-14T04:52:29.621Z,15.56
2023-08-14T04:53:29.590Z,15.57
2023-08-14T04:54:29.588Z,15.57
2023-08-14T04:55:29.571Z,15.56
2023-08-14T04:56:29.562Z,15.57
2023-08-14T04:57:29.554Z,15.51
2023-08-14T04:58:29.567Z,15.48
2023-08-14T04:59:29.566Z,15.49
2023-08-14T05:00:29.607Z,15.49
2023-08-14T05:01:29.545Z,15.49
2023-08-14T05:02:29.530Z,15.56
2023-08-14T05:03:29.484Z,15.57
2023-08-14T05:04:29.492Z,15.59
2023-08-14T05:05:29.455Z,15.57
2023-08-14T05:06:29.450Z,15.57
2023-08-14T05:07:29.446Z,15.59
2023-08-14T05:08:29.464Z,15.64
2023-08-14T05:09:29.458Z,15.67
2023-08-14T05:10:29.415Z,15.70
2023-08-14T05:11:29.396Z,15.74
2023-08-14T05:12:29.378Z,15.76
2023-08-14T05:13:29.374Z,15.79
2023-08-14T05:14:29.359Z,15.78
2023-08-14T05:15:35.488Z,15.79
2023-08-14T05:16:29.337Z,15.81
2023-08-14T05:17:29.353Z,15.81
2023-08-14T05:18:32.918Z,15.82
2023-08-14T05:19:29.297Z,15.84
2023-08-14T05:20:29.307Z,15.85
2023-08-14T05:21:29.281Z,15.88
2023-08-14T05:22:29.272Z,15.92
2023-08-14T05:23:29.665Z,15.93
2023-08-14T05:24:29.243Z,15.93
2023-08-14T05:25:29.241Z,15.97
2023-08-14T05:26:29.218Z,16.00
2023-08-14T05:27:29.211Z,16.03
2023-08-14T05:28:29.227Z,16.07
2023-08-14T05:29:29.210Z,16.09
2023-08-14T05:30:29.218Z,16.12
2023-08-14T05:31:29.210Z,16.16
2023-08-14T05:32:29.181Z,16.22
2023-08-14T05:33:29.251Z,16.25
2023-08-14T05:34:29.149Z,16.26
2023-08-14T05:35:29.162Z,16.33
2023-08-14T05:36:29.111Z,16.37
2023-08-14T05:37:29.101Z,16.40
2023-08-14T05:38:29.087Z,16.45
2023-08-14T05:39:29.084Z,16.52
2023-08-14T05:40:29.078Z,16.56
2023-08-14T05:41:29.072Z,16.63
2023-08-14T05:42:29.068Z,16.71
2023-08-14T05:43:29.036Z,16.74
2023-08-14T05:44:29.026Z,16.78
2023-08-14T05:45:29.038Z,16.81
2023-08-14T05:46:29.007Z,16.86
2023-08-14T05:47:29.001Z,16.89
2023-08-14T05:48:29.021Z,16.92
2023-08-14T05:49:28.963Z,16.96
2023-08-14T05:50:28.953Z,17.00
2023-08-14T05:51:28.951Z,17.08
2023-08-14T05:52:28.933Z,17.15
2023-08-14T05:53:28.923Z,17.22
2023-08-14T05:54:28.934Z,17.32
2023-08-14T05:55:28.899Z,17.40
2023-08-14T05:56:28.892Z,17.47
2023-08-14T05:57:28.914Z,17.55
2023-08-14T05:58:28.875Z,17.63
2023-08-14T05:59:28.868Z,17.67
2023-08-14T06:00:28.846Z,17.70
2023-08-14T06:01:28.883Z,17.76
2023-08-14T06:02:28.857Z,17.79
2023-08-14T06:03:41.931Z,17.85
2023-08-14T06:04:28.834Z,17.89
2023-08-14T06:05:28.890Z,17.95
2023-08-14T06:06:28.782Z,18.00
2023-08-14T06:07:28.778Z,18.02
2023-08-14T06:08:29.684Z,18.07
2023-08-14T06:09:28.793Z,18.12
2023-08-14T06:10:28.733Z,18.21
2023-08-14T06:11:28.752Z,18.25
2023-08-14T06:12:28.709Z,18.27
2023-08-14T06:13:28.703Z,18.34
2023-08-14T06:14:28.706Z,18.42
2023-08-14T06:15:28.672Z,18.50
2023-08-14T06:16:28.685Z,18.59
2023-08-14T06:17:29.845Z,18.67
2023-08-14T06:18:28.637Z,18.74
2023-08-14T06:19:28.639Z,18.80
2023-08-14T06:20:28.625Z,18.86
2023-08-14T06:21:28.611Z,18.91
2023-08-14T06:22:28.632Z,18.97
2023-08-14T06:23:28.584Z,19.01
2023-08-14T06:24:28.570Z,19.13
2023-08-14T06:25:28.570Z,19.18
2023-08-14T06:26:28.552Z,19.28
2023-08-14T06:27:28.547Z,19.35
2023-08-14T06:28:28.575Z,19.42
2023-08-14T06:29:28.515Z,19.50
2023-08-14T06:30:28.506Z,19.50
2023-08-14T06:31:28.571Z,19.50
2023-08-14T06:32:28.498Z,19.54
2023-08-14T06:33:28.473Z,19.60
2023-08-14T06:34:28.485Z,19.66
2023-08-14T06:35:28.453Z,19.72
2023-08-14T06:36:28.442Z,19.80
2023-08-14T06:37:28.439Z,19.88
2023-08-14T06:38:28.423Z,19.95
2023-08-14T06:39:28.445Z,20.02
2023-08-14T06:40:28.393Z,20.06
2023-08-14T06:41:28.440Z,20.10
2023-08-14T06:42:28.374Z,20.18
2023-08-14T06:43:28.369Z,20.18
2023-08-14T06:44:28.361Z,20.23
2023-08-14T06:45:28.341Z,20.31
2023-08-14T06:46:28.378Z,20.39
2023-08-14T06:47:28.356Z,20.49
2023-08-14T06:48:28.306Z,20.51
2023-08-14T06:49:28.303Z,20.56
2023-08-14T06:50:28.328Z,20.62
2023-08-14T06:51:28.282Z,20.68
2023-08-14T06:52:28.263Z,20.77
2023-08-14T06:53:28.307Z,20.80
2023-08-14T06:54:28.239Z,20.89
2023-08-14T06:55:28.302Z,20.96
2023-08-14T06:56:28.231Z,21.02
2023-08-14T06:57:28.249Z,21.08
2023-08-14T06:58:28.224Z,21.17
2023-08-14T06:59:28.187Z,21.19
2023-08-14T07:00:28.173Z,21.26
2023-08-14T07:01:28.212Z,21.30
2023-08-14T07:02:28.182Z,21.35
2023-08-14T07:03:28.293Z,21.41
2023-08-14T07:04:28.123Z,21.48
2023-08-14T07:05:28.130Z,21.51
2023-08-14T07:06:28.143Z,21.54
2023-08-14T07:07:28.123Z,21.59
2023-08-14T07:08:28.098Z,21.57
2023-08-14T07:09:28.075Z,21.54
2023-08-14T07:10:28.064Z,21.61
2023-08-14T07:11:28.064Z,21.67
2023-08-14T07:12:28.575Z,21.75
2023-08-14T07:13:28.113Z,21.79
2023-08-14T07:14:30.625Z,21.81
2023-08-14T07:15:28.014Z,21.82
2023-08-14T07:16:28.092Z,21.90
2023-08-14T07:17:28.111Z,21.90
2023-08-14T07:18:27.998Z,21.99
2023-08-14T07:19:27.971Z,22.06
2023-08-14T07:20:27.953Z,22.16
2023-08-14T07:21:27.945Z,22.23
2023-08-14T07:22:27.932Z,22.34
2023-08-14T07:23:27.949Z,22.41
2023-08-14T07:24:27.916Z,22.44
2023-08-14T07:25:27.908Z,22.50
2023-08-14T07:26:27.898Z,22.60
2023-08-14T07:27:27.874Z,22.68
2023-08-14T07:28:27.872Z,22.75
2023-08-14T07:29:27.878Z,22.80
2023-08-14T07:30:27.863Z,22.87
2023-08-14T07:31:27.841Z,22.92
2023-08-14T07:32:27.849Z,22.92
2023-08-14T07:33:27.819Z,22.92
2023-08-14T07:34:27.840Z,22.92
2023-08-14T07:35:27.817Z,22.96
2023-08-14T07:36:27.779Z,22.94
2023-08-14T07:37:27.759Z,22.97
2023-08-14T07:38:27.758Z,23.04
2023-08-14T07:39:27.735Z,23.11
2023-08-14T07:40:27.770Z,23.17
2023-08-14T07:41:27.719Z,23.26
2023-08-14T07:42:27.707Z,23.32
2023-08-14T07:43:27.701Z,23.35
2023-08-14T07:44:27.688Z,23.35
2023-08-14T07:45:27.707Z,23.40
2023-08-14T07:46:27.738Z,23.42
2023-08-14T07:47:27.690Z,23.47
2023-08-14T07:48:27.647Z,23.57
2023-08-14T07:49:27.632Z,23.61
2023-08-14T07:50:27.682Z,23.64
2023-08-14T07:51:27.630Z,23.62
2023-08-14T07:52:27.596Z,23.61
2023-08-14T07:53:27.582Z,23.65
2023-08-14T07:54:27.574Z,23.70
2023-08-14T07:55:27.637Z,23.75
2023-08-14T07:56:27.572Z,23.76
2023-08-14T07:57:27.560Z,23.80
2023-08-14T07:58:27.542Z,23.80
2023-08-14T07:59:27.517Z,23.80
2023-08-14T08:00:27.520Z,23.79
2023-08-14T08:01:27.533Z,23.77
2023-08-14T08:02:28.771Z,23.76
2023-08-14T08:03:27.504Z,23.79
2023-08-14T08:04:27.486Z,23.82
2023-08-14T08:05:27.501Z,23.83
2023-08-14T08:06:27.444Z,23.83
2023-08-14T08:07:27.920Z,23.83
2023-08-14T08:08:27.440Z,23.85
2023-08-14T08:09:27.403Z,23.85
2023-08-14T08:10:27.398Z,23.85
2023-08-14T08:11:27.386Z,23.89
2023-08-14T08:12:27.371Z,23.95
2023-08-14T08:13:27.406Z,24.01
2023-08-14T08:14:27.353Z,24.02
2023-08-14T08:15:27.426Z,24.12
2023-08-14T08:16:27.341Z,24.20
2023-08-14T08:17:27.331Z,24.22
2023-08-14T08:18:27.313Z,24.31
2023-08-14T08:19:27.336Z,24.35
2023-08-14T08:20:28.983Z,24.37
2023-08-14T08:21:27.274Z,24.39
2023-08-14T08:22:27.276Z,24.42
2023-08-14T08:23:27.293Z,24.44
2023-08-14T08:24:27.274Z,24.47
2023-08-14T08:25:27.261Z,24.53
2023-08-14T08:26:27.230Z,24.54
2023-08-14T08:27:27.216Z,24.59
2023-08-14T08:28:27.203Z,24.60
2023-08-14T08:29:27.182Z,24.61
2023-08-14T08:30:27.226Z,24.67
2023-08-14T08:31:27.232Z,24.77
2023-08-14T08:32:28.482Z,24.82
2023-08-14T08:33:27.954Z,24.83
2023-08-14T08:34:27.136Z,24.87
2023-08-14T08:35:27.115Z,24.85
2023-08-14T08:36:27.126Z,24.85
2023-08-14T08:37:27.108Z,24.87
2023-08-14T08:38:27.083Z,24.87
2023-08-14T08:39:27.072Z,24.92
2023-08-14T08:40:27.065Z,24.94
2023-08-14T08:41:27.071Z,24.97
2023-08-14T08:42:27.034Z,24.90
2023-08-14T08:43:27.065Z,24.85
2023-08-14T08:44:27.022Z,24.85
2023-08-14T08:45:27.018Z,24.80
2023-08-14T08:46:26.998Z,24.82
2023-08-14T08:47:27.023Z,24.91
2023-08-14T08:48:27.002Z,24.97
2023-08-14T08:49:28.876Z,24.95
2023-08-14T08:50:26.954Z,24.97
2023-08-14T08:51:26.943Z,24.88
2023-08-14T08:52:26.932Z,24.77
2023-08-14T08:53:26.960Z,24.63
2023-08-14T08:54:26.917Z,24.57
2023-08-14T08:55:26.892Z,24.50
2023-08-14T08:56:26.888Z,24.44
2023-08-14T08:57:26.873Z,24.47
2023-08-14T08:58:26.860Z,24.47
2023-08-14T08:59:26.882Z,24.42
2023-08-14T09:00:26.878Z,24.39
2023-08-14T09:01:26.946Z,24.39
2023-08-14T09:02:26.860Z,24.44
2023-08-14T09:03:27.029Z,24.44
2023-08-14T09:04:26.878Z,24.47
2023-08-14T09:05:26.790Z,24.50
2023-08-14T09:06:26.800Z,24.53
2023-08-14T09:07:26.766Z,24.47
2023-08-14T09:08:26.750Z,24.41
2023-08-14T09:09:26.739Z,24.45
2023-08-14T09:10:26.730Z,24.50
2023-08-14T09:11:26.717Z,24.49
2023-08-14T09:12:26.746Z,24.54
2023-08-14T09:13:32.277Z,24.53
2023-08-14T09:14:26.702Z,24.54
2023-08-14T09:15:26.750Z,24.56
2023-08-14T09:16:26.666Z,24.56
2023-08-14T09:17:26.692Z,24.56
2023-08-14T09:18:26.662Z,24.59
2023-08-14T09:19:26.633Z,24.61
2023-08-14T09:20:30.335Z,24.60
2023-08-14T09:21:26.610Z,24.60
2023-08-14T09:22:26.631Z,24.61
2023-08-14T09:23:26.584Z,24.56
2023-08-14T09:24:26.580Z,24.53
2023-08-14T09:25:26.569Z,24.45
2023-08-14T09:26:26.551Z,24.35
2023-08-14T09:27:26.538Z,24.37
2023-08-14T09:28:26.558Z,24.38
2023-08-14T09:29:26.523Z,24.44
2023-08-14T09:30:26.536Z,24.38
2023-08-14T09:31:26.493Z,24.38
2023-08-14T09:32:26.514Z,24.47
2023-08-14T09:33:26.521Z,24.50
2023-08-14T09:34:26.507Z,24.56
2023-08-14T09:35:26.450Z,24.59
2023-08-14T09:36:26.442Z,24.64
2023-08-14T09:37:26.428Z,24.73
2023-08-14T09:38:26.430Z,24.85
2023-08-14T09:39:26.415Z,25.00
2023-08-14T09:40:26.419Z,25.10
2023-08-14T09:41:26.410Z,25.20
2023-08-14T09:42:28.207Z,25.25
2023-08-14T09:43:26.393Z,25.27
2023-08-14T09:44:26.363Z,25.24
2023-08-14T09:45:26.335Z,25.20
2023-08-14T09:46:26.411Z,25.25
2023-08-14T09:47:26.433Z,25.35
2023-08-14T09:48:26.349Z,25.46
2023-08-14T09:49:26.335Z,25.52
2023-08-14T09:50:26.294Z,25.61
2023-08-14T09:51:26.281Z,25.69
2023-08-14T09:52:26.268Z,25.79
2023-08-14T09:53:26.760Z,25.89
2023-08-14T09:54:27.339Z,25.98
2023-08-14T09:55:26.255Z,26.15
2023-08-14T09:56:26.227Z,26.31
2023-08-14T09:57:28.869Z,26.50
2023-08-14T09:58:26.194Z,26.76
2023-08-14T09:59:26.186Z,26.98
2023-08-14T10:00:26.197Z,27.24
2023-08-14T10:01:26.206Z,27.51
2023-08-14T10:02:26.226Z,27.77
2023-08-14T10:03:26.208Z,27.99
2023-08-14T10:04:26.131Z,28.01
2023-08-14T10:05:26.115Z,28.25
2023-08-14T10:06:26.111Z,28.47
2023-08-14T10:07:26.128Z,28.73
2023-08-14T10:08:26.087Z,28.97
2023-08-14T10:09:26.072Z,29.25
2023-08-14T10:10:26.060Z,29.49
2023-08-14T10:11:26.068Z,29.52
2023-08-14T10:12:26.045Z,29.70
2023-08-14T10:13:26.064Z,29.94
2023-08-14T10:14:26.037Z,30.26
2023-08-14T10:15:26.005Z,30.57
2023-08-14T10:16:26.094Z,30.86
2023-08-14T10:17:25.991Z,30.90
2023-08-14T10:18:25.975Z,31.17
2023-08-14T10:19:25.975Z,31.45
2023-08-14T10:20:25.963Z,31.72
2023-08-14T10:21:25.951Z,31.87
2023-08-14T10:22:25.960Z,32.13
2023-08-14T10:23:25.922Z,32.42
2023-08-14T10:24:25.917Z,32.70
2023-08-14T10:25:25.898Z,32.69
2023-08-14T10:26:27.928Z,32.88
2023-08-14T10:27:25.903Z,32.89
2023-08-14T10:28:25.886Z,32.95
2023-08-14T10:29:25.871Z,33.19
2023-08-14T10:30:26.049Z,33.36
2023-08-14T10:31:25.831Z,33.57
2023-08-14T10:32:25.854Z,33.85
2023-08-14T10:33:25.841Z,34.05
2023-08-14T10:34:25.807Z,34.32
2023-08-14T10:35:25.804Z,34.51
2023-08-14T10:36:25.784Z,34.48
2023-08-14T10:37:25.773Z,34.53
2023-08-14T10:38:25.986Z,34.83
2023-08-14T10:39:25.765Z,34.92
2023-08-14T10:40:25.754Z,35.02
2023-08-14T10:41:25.731Z,34.80
2023-08-14T10:42:25.728Z,34.69
2023-08-14T10:43:25.719Z,34.81
2023-08-14T10:44:25.724Z,34.83
2023-08-14T10:45:25.696Z,35.03
2023-08-14T10:46:25.732Z,35.26
2023-08-14T10:47:25.720Z,35.40
2023-08-14T10:48:25.662Z,35.26
2023-08-14T10:49:25.670Z,35.28
2023-08-14T10:50:25.632Z,35.28
2023-08-14T10:51:25.621Z,35.54
2023-08-14T10:52:25.618Z,35.67
2023-08-14T10:53:25.608Z,35.81
2023-08-14T10:54:25.590Z,35.40
2023-08-14T10:55:25.597Z,35.36
2023-08-14T10:56:25.573Z,35.50
2023-08-14T10:57:25.568Z,35.69
2023-08-14T10:58:25.567Z,36.00
2023-08-14T10:59:25.591Z,36.27
2023-08-14T11:00:25.532Z,36.41
2023-08-14T11:01:25.523Z,36.04
2023-08-14T11:02:25.509Z,35.55
2023-08-14T11:03:25.504Z,35.21
2023-08-14T11:04:25.501Z,35.30
2023-08-14T11:05:25.975Z,35.70
2023-08-14T11:06:25.523Z,36.19
2023-08-14T11:07:25.455Z,36.15
2023-08-14T11:08:25.445Z,36.30
2023-08-14T11:09:25.435Z,36.41
2023-08-14T11:10:25.452Z,36.35
2023-08-14T11:11:25.412Z,36.26
2023-08-14T11:12:25.409Z,36.29
2023-08-14T11:13:25.432Z,35.92
2023-08-14T11:14:25.399Z,36.11
2023-08-14T11:15:25.498Z,35.99
2023-08-14T11:16:25.419Z,35.99
2023-08-14T11:17:25.406Z,36.30
2023-08-14T11:18:25.357Z,36.36
2023-08-14T11:19:25.357Z,36.36
2023-08-14T11:20:25.349Z,36.39
2023-08-14T11:21:31.928Z,36.23
2023-08-14T11:22:25.321Z,36.39
2023-08-14T11:23:25.359Z,36.31
2023-08-14T11:24:25.284Z,36.63
2023-08-14T11:25:25.277Z,36.90
2023-08-14T11:26:25.303Z,37.21
2023-08-14T11:27:25.300Z,37.29
2023-08-14T11:28:25.260Z,37.47
2023-08-14T11:29:25.255Z,37.56
2023-08-14T11:30:26.542Z,37.78
2023-08-14T11:31:31.071Z,37.98
2023-08-14T11:32:25.277Z,38.17
2023-08-14T11:33:25.328Z,38.36
2023-08-14T11:34:25.197Z,38.39
2023-08-14T11:35:25.203Z,38.20
2023-08-14T11:36:25.181Z,38.11
2023-08-14T11:37:25.329Z,38.11
2023-08-14T11:38:25.162Z,38.26
2023-08-14T11:39:25.140Z,37.80
2023-08-14T11:40:25.129Z,37.55
2023-08-14T11:41:31.423Z,37.32
2023-08-14T11:42:25.843Z,37.09
2023-08-14T11:43:25.105Z,36.83
2023-08-14T11:44:25.090Z,37.12
2023-08-14T11:45:25.084Z,37.36
2023-08-14T11:46:25.098Z,37.66
2023-08-14T11:47:25.146Z,38.01
2023-08-14T11:48:25.079Z,38.29
2023-08-14T11:49:25.049Z,38.39
2023-08-14T11:50:25.036Z,38.44
2023-08-14T11:51:25.053Z,38.23
2023-08-14T11:52:25.278Z,37.76
2023-08-14T11:53:25.006Z,37.64
2023-08-14T11:54:26.747Z,37.19
2023-08-14T11:55:24.997Z,35.84
2023-08-14T11:56:24.990Z,35.89
2023-08-14T11:57:25.005Z,36.29
2023-08-14T11:58:24.962Z,36.49
2023-08-14T11:59:24.960Z,36.57
2023-08-14T12:00:30.059Z,36.60
2023-08-14T12:01:24.961Z,36.87
2023-08-14T12:02:24.977Z,37.29
2023-08-14T12:03:24.928Z,37.73
2023-08-14T12:04:24.916Z,38.20
2023-08-14T12:05:24.899Z,38.45
2023-08-14T12:06:24.886Z,38.58
2023-08-14T12:07:24.919Z,38.44
2023-08-14T12:08:24.904Z,38.18
2023-08-14T12:09:24.866Z,38.22
2023-08-14T12:10:24.847Z,37.98
2023-08-14T12:11:24.842Z,37.31
2023-08-14T12:12:24.832Z,36.85
2023-08-14T12:13:24.852Z,36.52
2023-08-14T12:14:24.817Z,36.49
2023-08-14T12:15:25.257Z,36.68
2023-08-14T12:16:28.433Z,36.23
2023-08-14T12:17:25.214Z,36.14
2023-08-14T12:18:24.933Z,36.20
2023-08-14T12:19:24.774Z,36.76
2023-08-14T12:20:24.767Z,36.72
2023-08-14T12:21:24.759Z,36.80
2023-08-14T12:22:24.784Z,37.07
2023-08-14T12:23:25.056Z,37.35
2023-08-14T12:24:24.763Z,36.57
2023-08-14T12:25:24.720Z,36.73
2023-08-14T12:26:24.724Z,37.01
2023-08-14T12:27:24.716Z,37.29
2023-08-14T12:28:24.693Z,37.68
2023-08-14T12:29:24.703Z,37.89
2023-08-14T12:30:24.711Z,38.30
2023-08-14T12:31:24.752Z,38.42
2023-08-14T12:32:24.871Z,38.29
2023-08-14T12:33:24.652Z,37.77
2023-08-14T12:34:24.641Z,38.03
2023-08-14T12:35:24.632Z,38.60
2023-08-14T12:36:24.662Z,38.82
2023-08-14T12:37:24.659Z,39.06
2023-08-14T12:38:24.602Z,38.76
2023-08-14T12:39:24.602Z,38.67
2023-08-14T12:40:27.144Z,38.07
2023-08-14T12:41:24.580Z,37.26
2023-08-14T12:42:24.594Z,36.91
2023-08-14T12:43:33.147Z,37.23
2023-08-14T12:44:24.591Z,37.23
2023-08-14T12:45:24.544Z,37.26
2023-08-14T12:46:24.578Z,37.29
2023-08-14T12:47:25.054Z,37.64
2023-08-14T12:48:24.606Z,37.85
2023-08-14T12:49:24.524Z,38.26
2023-08-14T12:50:24.502Z,38.53
2023-08-14T12:51:24.535Z,38.11
2023-08-14T12:52:25.256Z,37.41